createdAt,value
2022-08-14T00:00:12.319Z,20.67
2022-08-14T00:04:31.978Z,20.63
2022-08-14T00:08:44.631Z,20.61
2022-08-14T00:12:56.603Z,20.54
2022-08-14T00:17:01.014Z,20.41
2022-08-14T00:21:04.854Z,20.37
2022-08-14T00:25:13.243Z,20.36
2022-08-14T00:29:17.555Z,20.32
2022-08-14T00:33:19.746Z,20.32
2022-08-14T00:37:21.803Z,20.33
2022-08-14T00:41:23.905Z,20.42
2022-08-14T00:45:27.329Z,20.61
2022-08-14T00:49:43.202Z,20.76
2022-08-14T00:53:46.306Z,20.83
2022-08-14T00:58:11.377Z,20.92
2022-08-14T01:02:15.828Z,20.89
2022-08-14T01:06:23.493Z,20.60
2022-08-14T01:10:50.733Z,20.33
2022-08-14T01:14:55.188Z,20.22
2022-08-14T01:19:19.531Z,20.10
2022-08-14T01:23:22.146Z,19.92
2022-08-14T01:27:25.121Z,19.79
2022-08-14T01:31:30.840Z,19.76
2022-08-14T01:36:04.965Z,19.64
2022-08-14T01:40:03.349Z,19.42
2022-08-14T01:44:32.369Z,19.34
2022-08-14T01:48:37.234Z,19.34
2022-08-14T01:52:58.613Z,19.35
2022-08-14T01:57:02.944Z,19.29
2022-08-14T02:01:08.081Z,19.24
2022-08-14T02:05:14.289Z,19.11
2022-08-14T02:09:22.281Z,18.91
2022-08-14T02:13:24.651Z,18.82
2022-08-14T02:17:28.660Z,18.81
2022-08-14T02:21:43.206Z,18.83
2022-08-14T02:25:54.536Z,18.78
2022-08-14T02:30:00.919Z,18.75
2022-08-14T02:34:14.795Z,18.78
2022-08-14T02:38:26.879Z,18.72
2022-08-14T02:42:36.939Z,18.57
2022-08-14T02:46:44.739Z,18.28
2022-08-14T02:50:53.527Z,18.25
2022-08-14T02:54:57.219Z,18.32
2022-08-14T02:59:01.849Z,18.33
2022-08-14T03:03:08.320Z,18.34
2022-08-14T03:07:10.651Z,18.35
2022-08-14T03:11:20.959Z,18.28
2022-08-14T03:15:25.642Z,18.07
2022-08-14T03:19:27.685Z,17.82
2022-08-14T03:23:38.281Z,17.72
2022-08-14T03:27:48.375Z,17.78
2022-08-14T03:32:00.966Z,17.84
2022-08-14T03:37:51.891Z,17.90
2022-08-14T03:40:30.620Z,17.95
2022-08-14T03:45:27.537Z,18.04
2022-08-14T03:48:57.793Z,17.99
2022-08-14T03:53:01.580Z,17.96
2022-08-14T03:57:04.175Z,17.83
2022-08-14T04:01:06.517Z,17.51
2022-08-14T04:05:12.741Z,17.24
2022-08-14T04:09:15.278Z,17.26
2022-08-14T04:13:19.247Z,17.28
2022-08-14T04:17:26.402Z,17.31
2022-08-14T04:21:29.516Z,17.38
2022-08-14T04:25:41.710Z,17.48
2022-08-14T04:29:45.254Z,17.58
2022-08-14T04:33:48.437Z,17.68
2022-08-14T04:38:36.683Z,17.66
2022-08-14T04:42:51.878Z,17.65
2022-08-14T04:47:13.303Z,17.81
2022-08-14T04:51:18.268Z,17.91
2022-08-14T04:55:20.535Z,18.00
2022-08-14T04:59:24.269Z,18.88
2022-08-14T05:03:30.047Z,19.30
2022-08-14T05:07:46.437Z,19.32
2022-08-14T05:11:51.320Z,20.22
2022-08-14T05:15:55.414Z,21.91
2022-08-14T05:21:04.346Z,21.24
2022-08-14T05:24:25.294Z,20.54
2022-08-14T05:28:35.410Z,20.17
2022-08-14T05:32:38.864Z,19.87
2022-08-14T05:36:40.939Z,19.82
2022-08-14T05:40:44.416Z,23.21
2022-08-14T05:44:46.664Z,26.79
2022-08-14T05:48:55.198Z,29.51
2022-08-14T05:52:59.695Z,31.48
2022-08-14T05:57:01.781Z,32.84
2022-08-14T06:01:04.414Z,33.93
2022-08-14T06:05:08.427Z,34.94
2022-08-14T06:09:10.566Z,35.68
2022-08-14T06:13:13.801Z,36.25
2022-08-14T06:17:25.870Z,36.70
2022-08-14T06:21:28.299Z,37.36
2022-08-14T06:25:31.960Z,37.96
2022-08-14T06:29:37.448Z,38.49
2022-08-14T06:35:04.755Z,38.87
2022-08-14T06:38:04.367Z,39.43
2022-08-14T06:42:06.940Z,39.88
2022-08-14T06:46:17.491Z,40.09
2022-08-14T06:50:33.682Z,40.05
2022-08-14T06:54:35.885Z,40.56
2022-08-14T06:58:37.939Z,41.09
2022-08-14T07:02:58.998Z,41.35
2022-08-14T07:07:01.241Z,40.65
2022-08-14T07:11:06.600Z,36.20
2022-08-14T07:15:09.367Z,32.58
2022-08-14T07:19:12.327Z,30.36
2022-08-14T07:23:20.752Z,29.02
2022-08-14T07:27:23.460Z,28.23
2022-08-14T07:31:28.369Z,27.67
2022-08-14T07:35:43.036Z,27.09
2022-08-14T07:39:53.023Z,26.63
2022-08-14T07:43:56.214Z,26.58
2022-08-14T07:47:59.991Z,26.37
2022-08-14T07:52:03.318Z,26.26
2022-08-14T07:56:09.052Z,25.94
2022-08-14T08:00:30.813Z,26.15
2022-08-14T08:04:37.053Z,26.23
2022-08-14T08:08:42.326Z,26.17
2022-08-14T08:12:53.890Z,26.02
2022-08-14T08:16:57.109Z,26.17
2022-08-14T08:21:00.982Z,26.23
2022-08-14T08:25:05.529Z,26.28
2022-08-14T08:29:22.471Z,26.18
2022-08-14T08:33:36.840Z,26.23
2022-08-14T08:37:40.070Z,26.26
2022-08-14T08:41:53.643Z,26.32
2022-08-14T08:46:01.878Z,26.31
2022-08-14T08:50:22.782Z,26.30
2022-08-14T08:54:32.697Z,26.50
2022-08-14T08:58:37.718Z,26.66
2022-08-14T09:02:52.584Z,26.64
2022-08-14T09:07:09.130Z,26.78
2022-08-14T09:11:18.820Z,26.85
2022-08-14T09:15:24.135Z,26.91
2022-08-14T09:19:27.606Z,26.96
2022-08-14T09:23:49.498Z,26.81
2022-08-14T09:27:55.772Z,26.78
2022-08-14T09:32:03.205Z,26.85
2022-08-14T09:36:34.338Z,27.14
2022-08-14T09:40:59.335Z,27.34
2022-08-14T09:45:07.938Z,27.54
2022-08-14T09:49:16.271Z,27.66
2022-08-14T09:54:18.503Z,27.83
2022-08-14T09:58:19.339Z,27.94
2022-08-14T10:02:31.334Z,28.08
2022-08-14T10:06:45.210Z,28.19
2022-08-14T10:10:53.376Z,28.28
2022-08-14T10:14:59.357Z,28.29
2022-08-14T10:19:09.563Z,28.38
2022-08-14T10:23:16.236Z,28.38
2022-08-14T10:27:26.734Z,28.40
2022-08-14T10:31:45.446Z,28.39
2022-08-14T10:35:48.380Z,28.47
2022-08-14T10:40:10.480Z,28.67
2022-08-14T10:44:21.373Z,28.79
2022-08-14T10:48:37.124Z,28.95
2022-08-14T10:52:43.105Z,29.08
2022-08-14T10:56:45.523Z,29.12
2022-08-14T11:00:57.269Z,29.18
2022-08-14T11:05:13.513Z,29.31
2022-08-14T11:09:17.221Z,29.48
2022-08-14T11:13:30.781Z,29.64
2022-08-14T11:17:37.365Z,29.78
2022-08-14T11:21:45.777Z,29.94
2022-08-14T11:25:53.396Z,30.00
2022-08-14T11:30:49.032Z,30.00
2022-08-14T11:34:29.963Z,30.04
2022-08-14T11:38:40.575Z,30.28
2022-08-14T11:42:57.577Z,30.34
2022-08-14T11:47:05.848Z,30.22
2022-08-14T11:51:23.726Z,30.23
2022-08-14T11:55:26.723Z,30.32
2022-08-14T11:59:32.750Z,30.32
2022-08-14T12:03:56.894Z,30.39
2022-08-14T12:08:05.826Z,30.42
2022-08-14T12:12:34.969Z,30.41
2022-08-14T12:16:38.406Z,30.50
2022-08-14T12:20:45.737Z,30.48
2022-08-14T12:24:54.371Z,30.53
2022-08-14T12:29:11.425Z,30.56
2022-08-14T12:33:33.875Z,30.67
2022-08-14T12:37:38.684Z,30.82
2022-08-14T12:41:53.720Z,30.69
2022-08-14T12:45:58.980Z,30.50
2022-08-14T12:50:04.337Z,30.65
2022-08-14T12:54:27.065Z,30.85
2022-08-14T12:58:48.246Z,30.98
2022-08-14T13:02:56.420Z,31.08
2022-08-14T13:07:07.250Z,31.05
2022-08-14T13:11:14.856Z,31.15
2022-08-14T13:15:19.529Z,31.24
2022-08-14T13:19:24.258Z,31.37
2022-08-14T13:23:36.074Z,31.31
2022-08-14T13:27:40.588Z,31.17
2022-08-14T13:31:47.042Z,31.16
2022-08-14T13:35:50.703Z,31.11
2022-08-14T13:39:56.739Z,31.28
2022-08-14T13:44:00.598Z,31.40
2022-08-14T13:48:03.064Z,31.38
2022-08-14T13:52:48.301Z,31.31
2022-08-14T13:56:36.708Z,31.32
2022-08-14T14:00:52.109Z,31.22
2022-08-14T14:05:00.662Z,31.27
2022-08-14T14:09:06.743Z,31.42
2022-08-14T14:13:15.777Z,31.42
2022-08-14T14:17:24.326Z,31.40
2022-08-14T14:21:28.635Z,31.49
2022-08-14T14:25:45.757Z,31.57
2022-08-14T14:29:55.651Z,31.65
2022-08-14T14:34:12.739Z,31.82
2022-08-14T14:38:32.582Z,31.88
2022-08-14T14:42:35.389Z,31.95
2022-08-14T14:46:41.605Z,32.11
2022-08-14T14:50:44.890Z,32.11
2022-08-14T14:54:48.392Z,32.06
2022-08-14T14:58:51.728Z,31.95
2022-08-14T15:02:57.835Z,31.89
2022-08-14T15:07:03.421Z,31.96
2022-08-14T15:11:05.725Z,32.03
2022-08-14T15:15:16.306Z,32.08
2022-08-14T15:19:18.611Z,32.00
2022-08-14T15:23:24.586Z,31.84
2022-08-14T15:27:26.999Z,31.77
2022-08-14T15:31:29.570Z,31.80
2022-08-14T15:35:33.890Z,31.92
2022-08-14T15:39:38.176Z,31.97
2022-08-14T15:43:40.709Z,32.01
2022-08-14T15:47:44.546Z,32.05
2022-08-14T15:51:46.884Z,32.01
2022-08-14T15:55:54.583Z,31.99
2022-08-14T16:00:21.368Z,31.97
2022-08-14T16:04:37.706Z,31.90
2022-08-14T16:08:41.118Z,31.84
2022-08-14T16:12:47.365Z,31.82
2022-08-14T16:17:00.330Z,31.89
2022-08-14T16:21:12.118Z,31.98
2022-08-14T16:25:18.087Z,31.94
2022-08-14T16:29:21.578Z,31.81
2022-08-14T16:33:56.575Z,31.81
2022-08-14T16:37:45.720Z,31.81
2022-08-14T16:41:52.366Z,31.76
2022-08-14T16:45:57.193Z,31.71
2022-08-14T16:50:04.311Z,31.55
2022-08-14T16:54:33.742Z,31.39
2022-08-14T16:58:32.639Z,31.23
2022-08-14T17:02:42.697Z,31.07
2022-08-14T17:06:52.877Z,30.94
2022-08-14T17:10:55.770Z,30.85
2022-08-14T17:15:09.957Z,30.77
2022-08-14T17:19:17.487Z,30.66
2022-08-14T17:23:21.975Z,30.55
2022-08-14T17:27:32.398Z,30.46
2022-08-14T17:31:58.837Z,30.41
2022-08-14T17:36:21.650Z,30.33
2022-08-14T17:40:29.877Z,30.30
2022-08-14T17:44:45.361Z,30.23
2022-08-14T17:49:13.816Z,30.13
2022-08-14T17:53:11.764Z,30.03
2022-08-14T17:57:16.128Z,29.92
2022-08-14T18:01:23.359Z,29.79
2022-08-14T18:06:08.589Z,29.63
2022-08-14T18:09:57.095Z,29.43
2022-08-14T18:14:01.647Z,29.28
2022-08-14T18:18:10.031Z,29.07
2022-08-14T18:22:31.362Z,28.91
2022-08-14T18:26:37.479Z,28.77
2022-08-14T18:30:58.385Z,28.67
2022-08-14T18:35:19.810Z,28.52
2022-08-14T18:39:25.913Z,28.39
2022-08-14T18:43:44.670Z,28.23
2022-08-14T18:48:14.801Z,27.96
2022-08-14T18:52:18.618Z,27.67
2022-08-14T18:56:59.478Z,27.39
2022-08-14T19:01:04.708Z,27.23
2022-08-14T19:05:08.637Z,27.10
2022-08-14T19:09:50.351Z,27.00
2022-08-14T19:13:52.980Z,26.91
2022-08-14T19:18:14.791Z,26.78
2022-08-14T19:22:29.882Z,26.68
2022-08-14T19:26:35.636Z,26.66
2022-08-14T19:30:39.263Z,26.58
2022-08-14T19:34:52.396Z,26.48
2022-08-14T19:38:57.700Z,26.45
2022-08-14T19:43:06.786Z,26.40
2022-08-14T19:47:13.193Z,26.36
2022-08-14T19:51:15.843Z,26.35
2022-08-14T19:55:20.333Z,26.32
2022-08-14T19:59:23.101Z,26.28
2022-08-14T20:03:25.662Z,26.20
2022-08-14T20:07:59.157Z,26.10
2022-08-14T20:12:05.194Z,26.00
2022-08-14T20:16:31.994Z,25.85
2022-08-14T20:20:41.186Z,25.65
2022-08-14T20:24:46.117Z,25.52
2022-08-14T20:28:51.583Z,25.41
2022-08-14T20:33:07.309Z,25.36
2022-08-14T20:37:14.257Z,25.25
2022-08-14T20:41:20.272Z,25.00
2022-08-14T20:45:25.198Z,24.81
2022-08-14T20:49:30.224Z,24.72
2022-08-14T20:53:35.403Z,24.71
2022-08-14T20:57:43.791Z,24.67
2022-08-14T21:01:51.602Z,24.75
2022-08-14T21:06:16.971Z,24.81
2022-08-14T21:10:35.357Z,24.77
2022-08-14T21:14:46.539Z,24.71
2022-08-14T21:18:56.756Z,24.64
2022-08-14T21:23:01.834Z,24.56
2022-08-14T21:27:13.058Z,24.55
2022-08-14T21:31:22.606Z,24.49
2022-08-14T21:35:24.707Z,24.38
2022-08-14T21:39:26.836Z,24.27
2022-08-14T21:43:32.298Z,24.21
2022-08-14T21:47:35.503Z,24.09
2022-08-14T21:51:53.552Z,23.98
2022-08-14T21:55:59.216Z,23.83
2022-08-14T22:00:35.131Z,23.77
2022-08-14T22:04:40.321Z,23.55
2022-08-14T22:08:46.246Z,23.24
2022-08-14T22:13:00.445Z,22.97
2022-08-14T22:17:12.980Z,22.93
2022-08-14T22:21:18.597Z,22.94
2022-08-14T22:25:20.815Z,22.99
2022-08-14T22:29:23.931Z,23.02
2022-08-14T22:33:31.023Z,22.87
2022-08-14T22:37:33.969Z,22.62
2022-08-14T22:41:43.045Z,22.65
2022-08-14T22:45:55.651Z,22.68
2022-08-14T22:50:32.023Z,22.78
2022-08-14T22:54:53.460Z,22.88
2022-08-14T22:58:43.832Z,22.89
2022-08-14T23:02:49.085Z,22.92
2022-08-14T23:07:02.754Z,22.90
2022-08-14T23:11:10.139Z,22.85
2022-08-14T23:15:15.247Z,22.80
2022-08-14T23:19:20.530Z,22.65
2022-08-14T23:23:23.362Z,22.38
2022-08-14T23:27:32.090Z,22.28
2022-08-14T23:31:51.357Z,22.31
2022-08-14T23:35:59.490Z,22.34
2022-08-14T23:40:02.265Z,22.46
2022-08-14T23:44:05.303Z,22.53
2022-08-14T23:48:10.132Z,22.49
2022-08-14T23:52:57.514Z,22.36
2022-08-14T23:56:36.602Z,22.35
